sensor_id;sensor_type;location;lat;lon;timestamp;temperature;humidity
3136;DHT22;1578;47.658;9.922;2022-12-20T00:01:26;0.70;95.50
3136;DHT22;1578;47.658;9.922;2022-12-20T00:03:54;0.70;95.10
3136;DHT22;1578;47.658;9.922;2022-12-20T00:06:21;0.80;95.40
3136;DHT22;1578;47.658;9.922;2022-12-20T00:08:52;0.70;95.10
3136;DHT22;1578;47.658;9.922;2022-12-20T00:11:18;0.70;95.10
3136;DHT22;1578;47.658;9.922;2022-12-20T00:13:45;0.70;94.30
3136;DHT22;1578;47.658;9.922;2022-12-20T00:16:16;0.60;94.50
3136;DHT22;1578;47.658;9.922;2022-12-20T00:18:43;0.70;95.50
3136;DHT22;1578;47.658;9.922;2022-12-20T00:21:12;0.70;95.70
3136;DHT22;1578;47.658;9.922;2022-12-20T00:23:39;0.60;96.00
3136;DHT22;1578;47.658;9.922;2022-12-20T00:26:20;0.70;96.20
3136;DHT22;1578;47.658;9.922;2022-12-20T00:28:46;0.60;96.00
3136;DHT22;1578;47.658;9.922;2022-12-20T00:31:15;0.60;95.90
3136;DHT22;1578;47.658;9.922;2022-12-20T00:33:44;0.60;95.80
3136;DHT22;1578;47.658;9.922;2022-12-20T00:36:10;0.50;95.90
3136;DHT22;1578;47.658;9.922;2022-12-20T00:38:36;0.60;96.50
3136;DHT22;1578;47.658;9.922;2022-12-20T00:41:06;0.60;96.50
3136;DHT22;1578;47.658;9.922;2022-12-20T00:43:33;0.60;96.70
3136;DHT22;1578;47.658;9.922;2022-12-20T00:46:00;0.60;96.10
3136;DHT22;1578;47.658;9.922;2022-12-20T00:48:26;0.70;96.20
3136;DHT22;1578;47.658;9.922;2022-12-20T00:50:52;0.70;95.60
3136;DHT22;1578;47.658;9.922;2022-12-20T00:53:21;0.60;95.30
3136;DHT22;1578;47.658;9.922;2022-12-20T00:55:47;0.60;95.50
3136;DHT22;1578;47.658;9.922;2022-12-20T00:58:13;0.50;95.50
3136;DHT22;1578;47.658;9.922;2022-12-20T01:00:39;0.60;95.70
3136;DHT22;1578;47.658;9.922;2022-12-20T01:03:05;0.60;96.00
3136;DHT22;1578;47.658;9.922;2022-12-20T01:05:30;0.60;96.20
3136;DHT22;1578;47.658;9.922;2022-12-20T01:07:56;0.60;95.80
3136;DHT22;1578;47.658;9.922;2022-12-20T01:10:22;0.60;96.00
3136;DHT22;1578;47.658;9.922;2022-12-20T01:12:47;0.60;96.90
3136;DHT22;1578;47.658;9.922;2022-12-20T01:15:14;0.70;97.20
3136;DHT22;1578;47.658;9.922;2022-12-20T01:17:41;0.80;96.70
3136;DHT22;1578;47.658;9.922;2022-12-20T01:20:07;0.80;95.80
3136;DHT22;1578;47.658;9.922;2022-12-20T01:22:32;0.70;95.70
3136;DHT22;1578;47.658;9.922;2022-12-20T01:24:58;0.80;96.10
3136;DHT22;1578;47.658;9.922;2022-12-20T01:27:24;0.80;96.20
3136;DHT22;1578;47.658;9.922;2022-12-20T01:29:50;0.80;95.50
3136;DHT22;1578;47.658;9.922;2022-12-20T01:32:16;0.70;95.90
3136;DHT22;1578;47.658;9.922;2022-12-20T01:34:42;0.80;95.70
3136;DHT22;1578;47.658;9.922;2022-12-20T01:37:07;0.80;96.00
3136;DHT22;1578;47.658;9.922;2022-12-20T01:39:33;0.90;95.70
3136;DHT22;1578;47.658;9.922;2022-12-20T01:41:58;0.90;95.70
3136;DHT22;1578;47.658;9.922;2022-12-20T01:46:51;0.90;95.60
3136;DHT22;1578;47.658;9.922;2022-12-20T01:49:31;0.90;95.90
3136;DHT22;1578;47.658;9.922;2022-12-20T01:52:05;1.00;96.00
3136;DHT22;1578;47.658;9.922;2022-12-20T01:54:35;0.90;95.60
3136;DHT22;1578;47.658;9.922;2022-12-20T01:57:06;1.00;96.40
3136;DHT22;1578;47.658;9.922;2022-12-20T01:59:35;1.00;96.10
3136;DHT22;1578;47.658;9.922;2022-12-20T02:02:04;1.00;95.90
3136;DHT22;1578;47.658;9.922;2022-12-20T02:04:32;1.10;96.40
3136;DHT22;1578;47.658;9.922;2022-12-20T02:06:58;1.10;95.70
3136;DHT22;1578;47.658;9.922;2022-12-20T02:09:24;1.10;95.60
3136;DHT22;1578;47.658;9.922;2022-12-20T02:12:13;1.10;95.20
3136;DHT22;1578;47.658;9.922;2022-12-20T02:32:03;1.20;94.10
3136;DHT22;1578;47.658;9.922;2022-12-20T02:34:34;1.10;93.70
3136;DHT22;1578;47.658;9.922;2022-12-20T02:37:01;1.20;94.50
3136;DHT22;1578;47.658;9.922;2022-12-20T02:39:29;1.20;94.70
3136;DHT22;1578;47.658;9.922;2022-12-20T02:42:16;1.30;95.50
3136;DHT22;1578;47.658;9.922;2022-12-20T02:44:51;1.30;95.80
3136;DHT22;1578;47.658;9.922;2022-12-20T02:47:54;1.30;96.10
3136;DHT22;1578;47.658;9.922;2022-12-20T02:50:27;1.40;96.30
3136;DHT22;1578;47.658;9.922;2022-12-20T02:52:54;1.40;95.30
3136;DHT22;1578;47.658;9.922;2022-12-20T02:55:27;1.30;95.10
3136;DHT22;1578;47.658;9.922;2022-12-20T02:58:01;1.30;95.70
3136;DHT22;1578;47.658;9.922;2022-12-20T03:00:33;1.20;95.70
3136;DHT22;1578;47.658;9.922;2022-12-20T03:03:03;1.20;96.30
3136;DHT22;1578;47.658;9.922;2022-12-20T03:05:50;1.10;96.30
3136;DHT22;1578;47.658;9.922;2022-12-20T03:08:16;1.20;96.40
3136;DHT22;1578;47.658;9.922;2022-12-20T03:10:42;1.20;95.90
3136;DHT22;1578;47.658;9.922;2022-12-20T03:13:08;1.10;96.30
3136;DHT22;1578;47.658;9.922;2022-12-20T03:15:34;1.20;97.10
3136;DHT22;1578;47.658;9.922;2022-12-20T03:18:00;1.30;96.50
3136;DHT22;1578;47.658;9.922;2022-12-20T03:20:26;1.30;96.30
3136;DHT22;1578;47.658;9.922;2022-12-20T03:22:51;1.40;96.10
3136;DHT22;1578;47.658;9.922;2022-12-20T03:25:17;1.50;96.30
3136;DHT22;1578;47.658;9.922;2022-12-20T03:27:42;1.50;96.20
3136;DHT22;1578;47.658;9.922;2022-12-20T03:30:08;1.50;95.80
3136;DHT22;1578;47.658;9.922;2022-12-20T03:32:34;1.60;96.00
3136;DHT22;1578;47.658;9.922;2022-12-20T03:35:00;1.60;95.70
3136;DHT22;1578;47.658;9.922;2022-12-20T03:37:26;1.60;95.50
3136;DHT22;1578;47.658;9.922;2022-12-20T03:39:51;1.60;95.70
3136;DHT22;1578;47.658;9.922;2022-12-20T03:42:17;1.70;95.90
3136;DHT22;1578;47.658;9.922;2022-12-20T03:44:42;1.70;95.30
3136;DHT22;1578;47.658;9.922;2022-12-20T03:47:08;1.70;95.10
3136;DHT22;1578;47.658;9.922;2022-12-20T03:49:34;1.70;95.40
3136;DHT22;1578;47.658;9.922;2022-12-20T03:51:59;1.70;96.00
3136;DHT22;1578;47.658;9.922;2022-12-20T03:54:25;1.70;95.90
3136;DHT22;1578;47.658;9.922;2022-12-20T03:56:50;1.70;95.50
3136;DHT22;1578;47.658;9.922;2022-12-20T03:59:16;1.80;95.60
3136;DHT22;1578;47.658;9.922;2022-12-20T04:01:42;1.80;95.00
3136;DHT22;1578;47.658;9.922;2022-12-20T04:04:10;1.90;95.40
3136;DHT22;1578;47.658;9.922;2022-12-20T04:06:36;1.80;94.40
3136;DHT22;1578;47.658;9.922;2022-12-20T04:09:02;1.70;94.70
3136;DHT22;1578;47.658;9.922;2022-12-20T04:11:28;1.70;95.10
3136;DHT22;1578;47.658;9.922;2022-12-20T04:13:53;1.70;94.20
3136;DHT22;1578;47.658;9.922;2022-12-20T04:16:24;1.80;95.00
3136;DHT22;1578;47.658;9.922;2022-12-20T04:18:50;1.80;95.10
3136;DHT22;1578;47.658;9.922;2022-12-20T04:21:21;1.80;95.00
3136;DHT22;1578;47.658;9.922;2022-12-20T04:23:47;1.80;94.60
3136;DHT22;1578;47.658;9.922;2022-12-20T04:26:13;1.80;93.70
3136;DHT22;1578;47.658;9.922;2022-12-20T04:28:39;1.60;94.60
3136;DHT22;1578;47.658;9.922;2022-12-20T04:31:05;1.70;94.30
3136;DHT22;1578;47.658;9.922;2022-12-20T04:33:30;1.70;93.90
3136;DHT22;1578;47.658;9.922;2022-12-20T04:35:56;1.80;94.60
3136;DHT22;1578;47.658;9.922;2022-12-20T04:38:22;1.80;94.60
3136;DHT22;1578;47.658;9.922;2022-12-20T04:40:49;1.60;95.00
3136;DHT22;1578;47.658;9.922;2022-12-20T04:43:16;1.60;94.80
3136;DHT22;1578;47.658;9.922;2022-12-20T04:45:42;1.60;95.40
3136;DHT22;1578;47.658;9.922;2022-12-20T04:48:09;1.60;95.40
3136;DHT22;1578;47.658;9.922;2022-12-20T04:50:34;1.70;94.70
3136;DHT22;1578;47.658;9.922;2022-12-20T04:53:00;1.60;94.60
3136;DHT22;1578;47.658;9.922;2022-12-20T04:55:44;1.60;94.70
3136;DHT22;1578;47.658;9.922;2022-12-20T04:58:10;1.50;94.00
3136;DHT22;1578;47.658;9.922;2022-12-20T05:00:35;1.50;94.60
3136;DHT22;1578;47.658;9.922;2022-12-20T05:03:01;1.60;94.70
3136;DHT22;1578;47.658;9.922;2022-12-20T05:05:27;1.60;94.10
3136;DHT22;1578;47.658;9.922;2022-12-20T05:07:53;1.60;94.00
3136;DHT22;1578;47.658;9.922;2022-12-20T05:10:19;1.60;93.60
3136;DHT22;1578;47.658;9.922;2022-12-20T05:12:45;1.60;93.60
3136;DHT22;1578;47.658;9.922;2022-12-20T05:15:11;1.50;93.50
3136;DHT22;1578;47.658;9.922;2022-12-20T05:17:37;1.50;93.30
3136;DHT22;1578;47.658;9.922;2022-12-20T05:20:04;1.50;93.60
3136;DHT22;1578;47.658;9.922;2022-12-20T05:22:30;1.50;94.00
3136;DHT22;1578;47.658;9.922;2022-12-20T05:25:14;1.50;94.30
3136;DHT22;1578;47.658;9.922;2022-12-20T05:27:58;1.40;94.10
3136;DHT22;1578;47.658;9.922;2022-12-20T05:30:24;1.40;94.50
3136;DHT22;1578;47.658;9.922;2022-12-20T05:32:50;1.40;94.40
3136;DHT22;1578;47.658;9.922;2022-12-20T05:35:16;1.40;94.30
3136;DHT22;1578;47.658;9.922;2022-12-20T05:37:41;1.40;94.10
3136;DHT22;1578;47.658;9.922;2022-12-20T05:40:07;1.40;94.30
3136;DHT22;1578;47.658;9.922;2022-12-20T05:42:33;1.40;94.70
3136;DHT22;1578;47.658;9.922;2022-12-20T05:44:59;1.50;93.50
3136;DHT22;1578;47.658;9.922;2022-12-20T05:47:28;1.40;93.20
3136;DHT22;1578;47.658;9.922;2022-12-20T05:49:58;1.40;92.60
3136;DHT22;1578;47.658;9.922;2022-12-20T05:52:24;1.40;92.50
3136;DHT22;1578;47.658;9.922;2022-12-20T05:54:49;1.30;92.60
3136;DHT22;1578;47.658;9.922;2022-12-20T05:57:15;1.30;92.80
3136;DHT22;1578;47.658;9.922;2022-12-20T05:59:41;1.30;92.90
3136;DHT22;1578;47.658;9.922;2022-12-20T06:02:06;1.30;92.60
3136;DHT22;1578;47.658;9.922;2022-12-20T06:04:32;1.30;93.50
3136;DHT22;1578;47.658;9.922;2022-12-20T06:06:58;1.40;93.60
3136;DHT22;1578;47.658;9.922;2022-12-20T06:09:27;1.30;93.50
3136;DHT22;1578;47.658;9.922;2022-12-20T06:11:52;1.40;93.50
3136;DHT22;1578;47.658;9.922;2022-12-20T06:14:18;1.40;92.90
3136;DHT22;1578;47.658;9.922;2022-12-20T06:16:44;1.30;92.30
3136;DHT22;1578;47.658;9.922;2022-12-20T06:19:09;1.20;92.60
3136;DHT22;1578;47.658;9.922;2022-12-20T06:21:35;1.10;92.60
3136;DHT22;1578;47.658;9.922;2022-12-20T06:24:01;1.00;92.60
3136;DHT22;1578;47.658;9.922;2022-12-20T06:26:26;1.00;93.30
3136;DHT22;1578;47.658;9.922;2022-12-20T06:28:52;1.00;93.70
3136;DHT22;1578;47.658;9.922;2022-12-20T06:31:19;1.00;93.60
3136;DHT22;1578;47.658;9.922;2022-12-20T06:33:44;1.00;94.60
3136;DHT22;1578;47.658;9.922;2022-12-20T06:36:10;1.00;95.10
3136;DHT22;1578;47.658;9.922;2022-12-20T06:38:36;1.00;95.30
3136;DHT22;1578;47.658;9.922;2022-12-20T06:41:02;1.00;95.50
3136;DHT22;1578;47.658;9.922;2022-12-20T06:43:27;1.10;95.20
3136;DHT22;1578;47.658;9.922;2022-12-20T06:45:53;1.10;95.20
3136;DHT22;1578;47.658;9.922;2022-12-20T06:48:18;1.20;95.10
3136;DHT22;1578;47.658;9.922;2022-12-20T06:50:50;1.10;94.50
3136;DHT22;1578;47.658;9.922;2022-12-20T06:53:16;1.10;95.20
3136;DHT22;1578;47.658;9.922;2022-12-20T06:55:41;1.10;95.00
3136;DHT22;1578;47.658;9.922;2022-12-20T06:58:07;1.10;95.20
3136;DHT22;1578;47.658;9.922;2022-12-20T07:00:33;1.20;95.70
3136;DHT22;1578;47.658;9.922;2022-12-20T07:02:59;1.20;95.30
3136;DHT22;1578;47.658;9.922;2022-12-20T07:05:24;1.10;94.80
3136;DHT22;1578;47.658;9.922;2022-12-20T07:07:50;1.10;95.00
3136;DHT22;1578;47.658;9.922;2022-12-20T07:10:16;1.10;94.50
3136;DHT22;1578;47.658;9.922;2022-12-20T07:12:42;1.10;94.00
3136;DHT22;1578;47.658;9.922;2022-12-20T07:15:08;1.20;94.10
3136;DHT22;1578;47.658;9.922;2022-12-20T07:17:33;1.20;93.70
3136;DHT22;1578;47.658;9.922;2022-12-20T07:19:59;1.20;93.60
3136;DHT22;1578;47.658;9.922;2022-12-20T07:22:25;1.20;92.80
3136;DHT22;1578;47.658;9.922;2022-12-20T07:24:51;1.10;92.20
3136;DHT22;1578;47.658;9.922;2022-12-20T07:27:16;1.10;91.70
3136;DHT22;1578;47.658;9.922;2022-12-20T07:29:42;1.00;91.50
3136;DHT22;1578;47.658;9.922;2022-12-20T07:32:08;1.00;91.50
3136;DHT22;1578;47.658;9.922;2022-12-20T07:34:36;1.00;92.10
3136;DHT22;1578;47.658;9.922;2022-12-20T07:37:02;0.90;92.10
3136;DHT22;1578;47.658;9.922;2022-12-20T07:39:27;0.80;92.50
3136;DHT22;1578;47.658;9.922;2022-12-20T07:41:54;0.80;92.20
3136;DHT22;1578;47.658;9.922;2022-12-20T07:44:20;0.90;93.40
3136;DHT22;1578;47.658;9.922;2022-12-20T07:46:46;1.00;93.10
3136;DHT22;1578;47.658;9.922;2022-12-20T07:49:12;1.00;93.40
3136;DHT22;1578;47.658;9.922;2022-12-20T07:51:44;1.00;92.40
3136;DHT22;1578;47.658;9.922;2022-12-20T07:54:32;1.00;93.40
3136;DHT22;1578;47.658;9.922;2022-12-20T07:57:09;1.00;94.00
3136;DHT22;1578;47.658;9.922;2022-12-20T07:59:41;1.10;94.20
3136;DHT22;1578;47.658;9.922;2022-12-20T08:02:11;1.20;93.40
3136;DHT22;1578;47.658;9.922;2022-12-20T08:04:38;1.20;93.40
3136;DHT22;1578;47.658;9.922;2022-12-20T08:07:04;1.30;93.50
3136;DHT22;1578;47.658;9.922;2022-12-20T08:09:35;1.20;92.30
3136;DHT22;1578;47.658;9.922;2022-12-20T08:12:02;1.30;93.60
3136;DHT22;1578;47.658;9.922;2022-12-20T08:14:27;1.50;93.60
3136;DHT22;1578;47.658;9.922;2022-12-20T08:16:53;1.60;93.20
3136;DHT22;1578;47.658;9.922;2022-12-20T08:19:19;1.50;93.30
3136;DHT22;1578;47.658;9.922;2022-12-20T08:21:44;1.60;93.00
3136;DHT22;1578;47.658;9.922;2022-12-20T08:24:10;1.50;92.90
3136;DHT22;1578;47.658;9.922;2022-12-20T08:26:37;1.50;92.90
3136;DHT22;1578;47.658;9.922;2022-12-20T08:29:03;1.50;93.00
3136;DHT22;1578;47.658;9.922;2022-12-20T08:31:29;1.50;92.40
3136;DHT22;1578;47.658;9.922;2022-12-20T08:33:54;1.50;93.00
3136;DHT22;1578;47.658;9.922;2022-12-20T08:36:20;1.50;92.80
3136;DHT22;1578;47.658;9.922;2022-12-20T08:38:45;1.60;92.80
3136;DHT22;1578;47.658;9.922;2022-12-20T08:41:13;1.60;92.70
3136;DHT22;1578;47.658;9.922;2022-12-20T08:43:39;1.70;93.50
3136;DHT22;1578;47.658;9.922;2022-12-20T08:46:06;1.80;93.70
3136;DHT22;1578;47.658;9.922;2022-12-20T08:48:32;1.80;93.80
3136;DHT22;1578;47.658;9.922;2022-12-20T08:51:01;1.90;93.70
3136;DHT22;1578;47.658;9.922;2022-12-20T08:53:28;2.10;93.80
3136;DHT22;1578;47.658;9.922;2022-12-20T08:56:02;2.20;92.00
3136;DHT22;1578;47.658;9.922;2022-12-20T08:58:28;2.20;91.60
3136;DHT22;1578;47.658;9.922;2022-12-20T09:00:58;2.40;91.20
3136;DHT22;1578;47.658;9.922;2022-12-20T09:03:25;2.50;91.20
3136;DHT22;1578;47.658;9.922;2022-12-20T09:05:51;2.50;90.70
3136;DHT22;1578;47.658;9.922;2022-12-20T09:08:17;2.60;90.90
3136;DHT22;1578;47.658;9.922;2022-12-20T09:10:42;2.70;90.90
3136;DHT22;1578;47.658;9.922;2022-12-20T09:13:09;2.90;90.80
3136;DHT22;1578;47.658;9.922;2022-12-20T09:15:35;3.00;91.00
3136;DHT22;1578;47.658;9.922;2022-12-20T09:18:01;3.10;91.10
3136;DHT22;1578;47.658;9.922;2022-12-20T09:20:28;3.10;91.20
3136;DHT22;1578;47.658;9.922;2022-12-20T09:22:54;3.30;90.10
3136;DHT22;1578;47.658;9.922;2022-12-20T09:25:20;3.40;89.40
3136;DHT22;1578;47.658;9.922;2022-12-20T09:27:46;3.50;86.90
3136;DHT22;1578;47.658;9.922;2022-12-20T09:30:11;3.60;85.00
3136;DHT22;1578;47.658;9.922;2022-12-20T09:32:37;3.60;84.10
3136;DHT22;1578;47.658;9.922;2022-12-20T09:35:04;3.70;84.40
3136;DHT22;1578;47.658;9.922;2022-12-20T09:37:30;3.80;81.20
3136;DHT22;1578;47.658;9.922;2022-12-20T09:39:56;3.80;78.70
3136;DHT22;1578;47.658;9.922;2022-12-20T09:42:25;3.90;78.80
3136;DHT22;1578;47.658;9.922;2022-12-20T09:44:55;3.90;75.50
3136;DHT22;1578;47.658;9.922;2022-12-20T09:47:23;3.90;75.90
3136;DHT22;1578;47.658;9.922;2022-12-20T09:49:54;3.90;76.00
3136;DHT22;1578;47.658;9.922;2022-12-20T09:55:33;3.80;78.70
3136;DHT22;1578;47.658;9.922;2022-12-20T10:00:48;3.80;76.40
3136;DHT22;1578;47.658;9.922;2022-12-20T10:03:23;3.80;75.80
3136;DHT22;1578;47.658;9.922;2022-12-20T10:06:05;3.70;77.40
3136;DHT22;1578;47.658;9.922;2022-12-20T10:08:54;3.70;79.90
3136;DHT22;1578;47.658;9.922;2022-12-20T10:11:45;3.70;81.00
3136;DHT22;1578;47.658;9.922;2022-12-20T10:17:35;4.00;81.80
3136;DHT22;1578;47.658;9.922;2022-12-20T10:20:07;4.10;77.70
3136;DHT22;1578;47.658;9.922;2022-12-20T10:22:49;4.20;78.90
3136;DHT22;1578;47.658;9.922;2022-12-20T10:25:19;4.20;76.40
3136;DHT22;1578;47.658;9.922;2022-12-20T10:27:47;4.30;76.50
3136;DHT22;1578;47.658;9.922;2022-12-20T10:30:20;4.30;72.90
3136;DHT22;1578;47.658;9.922;2022-12-20T10:32:48;4.30;73.60
3136;DHT22;1578;47.658;9.922;2022-12-20T10:43:22;4.70;68.70
3136;DHT22;1578;47.658;9.922;2022-12-20T10:46:00;4.50;67.50
3136;DHT22;1578;47.658;9.922;2022-12-20T10:56:18;4.30;67.50
3136;DHT22;1578;47.658;9.922;2022-12-20T10:58:53;4.20;70.80
3136;DHT22;1578;47.658;9.922;2022-12-20T11:01:21;4.20;71.50
3136;DHT22;1578;47.658;9.922;2022-12-20T11:06:43;4.10;74.50
3136;DHT22;1578;47.658;9.922;2022-12-20T11:12:11;4.00;75.30
3136;DHT22;1578;47.658;9.922;2022-12-20T11:14:39;4.00;77.10
3136;DHT22;1578;47.658;9.922;2022-12-20T11:23:19;4.10;76.80
3136;DHT22;1578;47.658;9.922;2022-12-20T11:34:28;4.30;75.90
3136;DHT22;1578;47.658;9.922;2022-12-20T11:37:20;4.40;76.30
3136;DHT22;1578;47.658;9.922;2022-12-20T11:40:05;4.40;76.30
3136;DHT22;1578;47.658;9.922;2022-12-20T11:45:39;4.40;75.10
3136;DHT22;1578;47.658;9.922;2022-12-20T11:54:02;4.60;69.70
3136;DHT22;1578;47.658;9.922;2022-12-20T11:56:37;4.60;70.70
3136;DHT22;1578;47.658;9.922;2022-12-20T12:01:45;4.50;71.80
3136;DHT22;1578;47.658;9.922;2022-12-20T12:04:19;4.40;71.30
3136;DHT22;1578;47.658;9.922;2022-12-20T12:11:59;4.50;73.80
3136;DHT22;1578;47.658;9.922;2022-12-20T12:14:36;4.10;78.60
3136;DHT22;1578;47.658;9.922;2022-12-20T12:22:45;4.70;81.60
3136;DHT22;1578;47.658;9.922;2022-12-20T12:25:16;5.00;80.50
3136;DHT22;1578;47.658;9.922;2022-12-20T12:27:42;5.40;76.00
3136;DHT22;1578;47.658;9.922;2022-12-20T12:30:13;5.70;72.60
3136;DHT22;1578;47.658;9.922;2022-12-20T12:33:09;5.90;69.30
3136;DHT22;1578;47.658;9.922;2022-12-20T12:35:46;6.20;67.20
3136;DHT22;1578;47.658;9.922;2022-12-20T12:38:40;6.30;62.80
3136;DHT22;1578;47.658;9.922;2022-12-20T12:41:23;6.20;60.10
3136;DHT22;1578;47.658;9.922;2022-12-20T12:43:53;6.00;58.50
3136;DHT22;1578;47.658;9.922;2022-12-20T12:46:34;5.70;60.20
3136;DHT22;1578;47.658;9.922;2022-12-20T12:49:15;5.70;60.70
3136;DHT22;1578;47.658;9.922;2022-12-20T12:51:49;5.50;62.10
3136;DHT22;1578;47.658;9.922;2022-12-20T12:54:37;5.40;62.40
3136;DHT22;1578;47.658;9.922;2022-12-20T12:57:14;5.20;64.20
3136;DHT22;1578;47.658;9.922;2022-12-20T12:59:42;5.30;64.60
3136;DHT22;1578;47.658;9.922;2022-12-20T13:05:28;5.10;64.60
3136;DHT22;1578;47.658;9.922;2022-12-20T13:07:46;5.00;66.90
3136;DHT22;1578;47.658;9.922;2022-12-20T13:12:55;5.00;65.80
3136;DHT22;1578;47.658;9.922;2022-12-20T13:21:16;4.80;68.40
3136;DHT22;1578;47.658;9.922;2022-12-20T13:23:41;4.60;70.70
3136;DHT22;1578;47.658;9.922;2022-12-20T13:26:49;4.60;72.40
3136;DHT22;1578;47.658;9.922;2022-12-20T13:29:25;4.50;73.80
3136;DHT22;1578;47.658;9.922;2022-12-20T13:31:52;4.60;72.00
3136;DHT22;1578;47.658;9.922;2022-12-20T13:34:55;4.60;73.40
3136;DHT22;1578;47.658;9.922;2022-12-20T13:37:37;4.50;73.70
3136;DHT22;1578;47.658;9.922;2022-12-20T13:45:46;4.70;73.30
3136;DHT22;1578;47.658;9.922;2022-12-20T13:48:20;4.70;73.00
3136;DHT22;1578;47.658;9.922;2022-12-20T13:50:50;4.60;73.60
3136;DHT22;1578;47.658;9.922;2022-12-20T13:53:20;4.50;74.00
3136;DHT22;1578;47.658;9.922;2022-12-20T13:55:46;4.60;72.90
3136;DHT22;1578;47.658;9.922;2022-12-20T13:58:20;4.50;73.90
3136;DHT22;1578;47.658;9.922;2022-12-20T14:00:47;4.50;74.40
3136;DHT22;1578;47.658;9.922;2022-12-20T14:03:28;4.50;74.10
3136;DHT22;1578;47.658;9.922;2022-12-20T14:06:00;4.40;75.50
3136;DHT22;1578;47.658;9.922;2022-12-20T14:08:30;4.50;73.00
3136;DHT22;1578;47.658;9.922;2022-12-20T14:11:11;4.30;76.50
3136;DHT22;1578;47.658;9.922;2022-12-20T14:13:37;4.40;75.90
3136;DHT22;1578;47.658;9.922;2022-12-20T14:16:14;4.40;76.40
3136;DHT22;1578;47.658;9.922;2022-12-20T14:18:40;4.40;77.10
3136;DHT22;1578;47.658;9.922;2022-12-20T14:21:08;4.40;74.80
3136;DHT22;1578;47.658;9.922;2022-12-20T14:23:43;4.40;74.80
3136;DHT22;1578;47.658;9.922;2022-12-20T14:26:16;4.40;72.80
3136;DHT22;1578;47.658;9.922;2022-12-20T14:28:48;4.20;73.70
3136;DHT22;1578;47.658;9.922;2022-12-20T14:36:47;4.10;78.20
3136;DHT22;1578;47.658;9.922;2022-12-20T14:44:32;3.90;80.30
3136;DHT22;1578;47.658;9.922;2022-12-20T14:47:00;3.80;80.00
3136;DHT22;1578;47.658;9.922;2022-12-20T14:49:32;3.80;79.30
3136;DHT22;1578;47.658;9.922;2022-12-20T14:57:30;3.70;80.20
3136;DHT22;1578;47.658;9.922;2022-12-20T15:08:24;3.50;86.40
3136;DHT22;1578;47.658;9.922;2022-12-20T15:13:36;3.60;88.10
3136;DHT22;1578;47.658;9.922;2022-12-20T15:16:04;3.50;87.20
3136;DHT22;1578;47.658;9.922;2022-12-20T15:18:31;3.50;90.00
3136;DHT22;1578;47.658;9.922;2022-12-20T15:21:11;3.50;90.40
3136;DHT22;1578;47.658;9.922;2022-12-20T15:23:51;3.50;90.60
3136;DHT22;1578;47.658;9.922;2022-12-20T15:26:20;3.50;90.60
3136;DHT22;1578;47.658;9.922;2022-12-20T15:28:46;3.50;90.00
3136;DHT22;1578;47.658;9.922;2022-12-20T15:31:13;3.40;89.80
3136;DHT22;1578;47.658;9.922;2022-12-20T15:33:41;3.40;91.20
3136;DHT22;1578;47.658;9.922;2022-12-20T15:36:14;3.40;91.40
3136;DHT22;1578;47.658;9.922;2022-12-20T15:38:40;3.40;92.10
3136;DHT22;1578;47.658;9.922;2022-12-20T15:41:10;3.40;91.60
3136;DHT22;1578;47.658;9.922;2022-12-20T15:43:38;3.30;91.50
3136;DHT22;1578;47.658;9.922;2022-12-20T15:46:04;3.30;91.50
3136;DHT22;1578;47.658;9.922;2022-12-20T15:48:30;3.20;91.30
3136;DHT22;1578;47.658;9.922;2022-12-20T15:50:58;3.20;91.70
3136;DHT22;1578;47.658;9.922;2022-12-20T15:53:30;3.20;91.80
3136;DHT22;1578;47.658;9.922;2022-12-20T15:55:57;3.20;91.90
3136;DHT22;1578;47.658;9.922;2022-12-20T15:58:24;3.20;91.70
3136;DHT22;1578;47.658;9.922;2022-12-20T16:00:52;3.10;92.80
3136;DHT22;1578;47.658;9.922;2022-12-20T16:03:21;3.20;92.40
3136;DHT22;1578;47.658;9.922;2022-12-20T16:05:48;3.10;92.30
3136;DHT22;1578;47.658;9.922;2022-12-20T16:08:16;3.10;92.10
3136;DHT22;1578;47.658;9.922;2022-12-20T16:10:44;3.00;91.70
3136;DHT22;1578;47.658;9.922;2022-12-20T16:13:20;3.00;92.80
3136;DHT22;1578;47.658;9.922;2022-12-20T16:15:47;2.90;92.40
3136;DHT22;1578;47.658;9.922;2022-12-20T16:18:12;2.90;93.30
3136;DHT22;1578;47.658;9.922;2022-12-20T16:20:38;3.00;94.30
3136;DHT22;1578;47.658;9.922;2022-12-20T16:23:05;3.10;93.70
3136;DHT22;1578;47.658;9.922;2022-12-20T16:25:35;3.00;93.10
3136;DHT22;1578;47.658;9.922;2022-12-20T16:28:01;3.00;93.90
3136;DHT22;1578;47.658;9.922;2022-12-20T16:30:27;2.90;93.60
3136;DHT22;1578;47.658;9.922;2022-12-20T16:32:53;2.80;93.40
3136;DHT22;1578;47.658;9.922;2022-12-20T16:35:25;2.80;94.10
3136;DHT22;1578;47.658;9.922;2022-12-20T16:37:55;2.80;96.40
3136;DHT22;1578;47.658;9.922;2022-12-20T16:40:23;2.90;96.00
3136;DHT22;1578;47.658;9.922;2022-12-20T16:42:49;3.00;96.20
3136;DHT22;1578;47.658;9.922;2022-12-20T16:45:17;3.00;95.50
3136;DHT22;1578;47.658;9.922;2022-12-20T16:47:44;2.90;95.20
3136;DHT22;1578;47.658;9.922;2022-12-20T16:50:10;2.90;95.10
3136;DHT22;1578;47.658;9.922;2022-12-20T16:52:36;2.80;94.70
3136;DHT22;1578;47.658;9.922;2022-12-20T16:55:05;2.80;94.80
3136;DHT22;1578;47.658;9.922;2022-12-20T16:57:32;2.80;94.80
3136;DHT22;1578;47.658;9.922;2022-12-20T16:59:57;2.80;94.70
3136;DHT22;1578;47.658;9.922;2022-12-20T17:02:31;2.80;94.70
3136;DHT22;1578;47.658;9.922;2022-12-20T17:04:58;2.80;94.50
3136;DHT22;1578;47.658;9.922;2022-12-20T17:07:24;2.70;95.00
3136;DHT22;1578;47.658;9.922;2022-12-20T17:09:50;2.70;94.80
3136;DHT22;1578;47.658;9.922;2022-12-20T17:12:18;2.70;94.80
3136;DHT22;1578;47.658;9.922;2022-12-20T17:14:44;2.60;93.90
3136;DHT22;1578;47.658;9.922;2022-12-20T17:17:10;2.60;94.80
3136;DHT22;1578;47.658;9.922;2022-12-20T17:19:36;2.60;94.70
3136;DHT22;1578;47.658;9.922;2022-12-20T17:22:02;2.60;94.60
3136;DHT22;1578;47.658;9.922;2022-12-20T17:24:28;2.50;95.10
3136;DHT22;1578;47.658;9.922;2022-12-20T17:26:54;2.50;95.50
3136;DHT22;1578;47.658;9.922;2022-12-20T17:29:20;2.40;95.30
3136;DHT22;1578;47.658;9.922;2022-12-20T17:31:46;2.30;95.70
3136;DHT22;1578;47.658;9.922;2022-12-20T17:34:16;2.40;96.20
3136;DHT22;1578;47.658;9.922;2022-12-20T17:36:46;2.40;96.10
3136;DHT22;1578;47.658;9.922;2022-12-20T17:39:12;2.40;96.70
3136;DHT22;1578;47.658;9.922;2022-12-20T17:41:38;2.30;96.30
3136;DHT22;1578;47.658;9.922;2022-12-20T17:44:04;2.40;97.30
3136;DHT22;1578;47.658;9.922;2022-12-20T17:46:30;2.50;96.90
3136;DHT22;1578;47.658;9.922;2022-12-20T17:48:56;2.50;96.90
3136;DHT22;1578;47.658;9.922;2022-12-20T17:51:24;2.50;97.30
3136;DHT22;1578;47.658;9.922;2022-12-20T17:53:52;2.50;97.00
3136;DHT22;1578;47.658;9.922;2022-12-20T17:56:32;2.50;97.70
3136;DHT22;1578;47.658;9.922;2022-12-20T17:58:59;2.60;97.80
3136;DHT22;1578;47.658;9.922;2022-12-20T18:01:28;2.60;97.80
3136;DHT22;1578;47.658;9.922;2022-12-20T18:03:57;2.60;98.10
3136;DHT22;1578;47.658;9.922;2022-12-20T18:06:23;2.60;98.30
3136;DHT22;1578;47.658;9.922;2022-12-20T18:08:54;2.60;97.90
3136;DHT22;1578;47.658;9.922;2022-12-20T18:11:21;2.50;97.20
3136;DHT22;1578;47.658;9.922;2022-12-20T18:13:50;2.50;97.50
3136;DHT22;1578;47.658;9.922;2022-12-20T18:16:19;2.60;98.30
3136;DHT22;1578;47.658;9.922;2022-12-20T18:18:46;2.60;97.90
3136;DHT22;1578;47.658;9.922;2022-12-20T18:21:14;2.70;97.90
3136;DHT22;1578;47.658;9.922;2022-12-20T18:23:41;2.70;98.20
3136;DHT22;1578;47.658;9.922;2022-12-20T18:28:38;2.80;97.10
3136;DHT22;1578;47.658;9.922;2022-12-20T18:31:05;2.90;97.50
3136;DHT22;1578;47.658;9.922;2022-12-20T18:33:31;2.90;96.90
3136;DHT22;1578;47.658;9.922;2022-12-20T18:38:27;2.90;96.20
3136;DHT22;1578;47.658;9.922;2022-12-20T18:40:53;2.90;96.00
3136;DHT22;1578;47.658;9.922;2022-12-20T18:43:18;3.00;95.90
3136;DHT22;1578;47.658;9.922;2022-12-20T18:45:44;2.90;95.60